PN47 weather

Lohr's Landing Airport
Jennerstown, Pennsylvania, United States

Public forecast

Using degrees Fahrenheit for public forecast. Weather courtesy of forecast.io.

METAR (pilot weather report)

Closest report is Somerset County Airport, 10.3 nm (19.1 km) S. Retrieved 2019/05/23 02:35 UTC (15 minutes ago):

K2G9 230235Z AUTO 17005KT 10SM CLR 15/09 A3020 RMK AO2

TAF (pilot weather forecast)

Forecast is more than 12 hours old.

Closest forecast is John Murtha Johnstown Cambria County Airport, 12.1 nm (22.3 km) ENE. Retrieved 2019/05/22 00:57 UTC (1 day ago):

TAF KJST 222353Z 2300/2324 14007KT P6SM SCT080 BKN250 FM230500 17005KT P6SM VCSH OVC050 FM231500 25012G19KT P6SM SCT025 BKN040